createdAt,value
2018-07-06T00:02:13.697Z,99.90
2018-07-06T00:04:53.306Z,99.90
2018-07-06T00:07:33.046Z,99.90
2018-07-06T00:10:12.685Z,99.90
2018-07-06T00:12:52.464Z,99.90
2018-07-06T00:15:32.171Z,99.90
2018-07-06T00:18:11.871Z,99.90
2018-07-06T00:20:51.559Z,99.90
2018-07-06T00:23:31.298Z,99.90
2018-07-06T00:26:10.859Z,99.90
2018-07-06T00:28:51.111Z,99.90
2018-07-06T00:31:30.634Z,99.90
2018-07-06T00:34:10.305Z,99.90
2018-07-06T00:36:50.087Z,99.90
2018-07-06T00:39:29.586Z,99.90
2018-07-06T00:42:09.158Z,99.90
2018-07-06T00:44:48.860Z,99.90
2018-07-06T00:47:28.542Z,99.90
2018-07-06T00:50:08.043Z,99.90
2018-07-06T00:52:47.726Z,99.90
2018-07-06T00:55:27.410Z,99.90
2018-07-06T00:58:06.923Z,99.90
2018-07-06T01:00:46.690Z,99.90
2018-07-06T01:03:26.342Z,99.90
2018-07-06T01:06:06.158Z,99.90
2018-07-06T01:08:45.876Z,99.90
2018-07-06T01:11:25.712Z,99.90
2018-07-06T01:14:05.345Z,99.90
2018-07-06T01:16:45.076Z,99.90
2018-07-06T01:19:24.721Z,99.90
2018-07-06T01:22:04.596Z,99.90
2018-07-06T01:24:44.379Z,99.90
2018-07-06T01:27:24.108Z,99.90
2018-07-06T01:30:03.873Z,99.90
2018-07-06T01:32:43.545Z,99.90
2018-07-06T01:35:23.068Z,99.90
2018-07-06T01:38:02.744Z,99.90
2018-07-06T01:40:42.452Z,99.90
2018-07-06T01:43:22.033Z,99.90
2018-07-06T01:46:01.755Z,99.90
2018-07-06T01:48:41.413Z,99.90
2018-07-06T01:51:21.151Z,99.90
2018-07-06T01:54:00.902Z,99.90
2018-07-06T01:56:40.710Z,99.90
2018-07-06T01:59:20.314Z,99.90
2018-07-06T02:02:00.037Z,99.90
2018-07-06T02:04:39.751Z,99.90
2018-07-06T02:07:19.415Z,99.90
2018-07-06T02:09:59.019Z,99.90
2018-07-06T02:12:38.936Z,99.90
2018-07-06T02:15:18.542Z,99.90
2018-07-06T02:17:58.274Z,99.90
2018-07-06T02:20:37.920Z,99.90
2018-07-06T02:23:17.649Z,99.90
2018-07-06T02:25:57.395Z,99.90
2018-07-06T02:28:37.146Z,99.90
2018-07-06T02:31:16.892Z,99.90
2018-07-06T02:33:56.566Z,99.90
2018-07-06T02:36:36.267Z,99.90
2018-07-06T02:39:16.037Z,99.90
2018-07-06T02:41:55.782Z,99.90
2018-07-06T02:44:35.611Z,99.90
2018-07-06T02:47:15.150Z,99.90
2018-07-06T02:49:54.800Z,99.90
2018-07-06T02:52:34.490Z,99.90
2018-07-06T02:55:14.247Z,99.90
2018-07-06T02:57:53.752Z,99.90
2018-07-06T03:00:33.363Z,99.90
2018-07-06T03:03:13.007Z,99.90
2018-07-06T03:05:52.511Z,99.90
2018-07-06T03:08:32.109Z,99.90
2018-07-06T03:11:11.722Z,99.90
2018-07-06T03:13:51.319Z,99.90
2018-07-06T03:16:30.901Z,99.90
2018-07-06T03:19:10.401Z,99.90
2018-07-06T03:21:50.150Z,99.90
2018-07-06T03:24:29.927Z,99.90
2018-07-06T03:27:09.549Z,99.90
2018-07-06T03:29:49.372Z,99.90
2018-07-06T03:32:29.051Z,99.90
2018-07-06T03:35:08.679Z,99.90
2018-07-06T03:37:48.321Z,99.90
2018-07-06T03:40:28.065Z,99.90
2018-07-06T03:43:07.679Z,99.90
2018-07-06T03:45:47.345Z,99.90
2018-07-06T03:48:28.713Z,99.90
2018-07-06T03:51:09.402Z,99.90
2018-07-06T03:53:49.790Z,99.90
2018-07-06T03:56:29.410Z,99.90
2018-07-06T04:01:42.715Z,99.90
2018-07-06T04:04:22.333Z,99.90
2018-07-06T04:07:01.945Z,99.90
2018-07-06T04:09:41.519Z,99.90
2018-07-06T04:12:21.230Z,99.90
2018-07-06T04:15:00.980Z,99.90
2018-07-06T04:17:40.590Z,99.90
2018-07-06T04:20:21.202Z,99.90
2018-07-06T04:23:00.926Z,99.90
2018-07-06T04:25:40.637Z,99.90
2018-07-06T04:28:20.217Z,99.90
2018-07-06T04:30:59.949Z,99.90
2018-07-06T04:33:41.009Z,99.90
2018-07-06T04:36:23.712Z,99.90
2018-07-06T04:39:04.443Z,99.90
2018-07-06T04:41:44.603Z,99.90
2018-07-06T04:44:24.606Z,99.90
2018-07-06T04:47:05.644Z,99.90
2018-07-06T04:49:45.474Z,99.90
2018-07-06T04:52:25.090Z,99.90
2018-07-06T04:55:04.874Z,99.90
2018-07-06T04:57:44.519Z,99.90
2018-07-06T05:00:24.206Z,99.90
2018-07-06T05:03:03.893Z,99.90
2018-07-06T05:05:43.678Z,99.90
2018-07-06T05:08:23.333Z,99.90
2018-07-06T05:11:02.996Z,99.90
2018-07-06T05:13:42.613Z,99.90
2018-07-06T05:16:22.199Z,99.90
2018-07-06T05:19:01.911Z,99.90
2018-07-06T05:21:41.650Z,99.90
2018-07-06T05:24:21.354Z,99.90
2018-07-06T05:27:01.158Z,99.90
2018-07-06T05:29:41.331Z,99.90
2018-07-06T05:32:21.105Z,99.90
2018-07-06T05:35:00.953Z,99.90
2018-07-06T05:37:40.445Z,99.90
2018-07-06T05:40:20.046Z,99.90
2018-07-06T05:42:59.746Z,99.90
2018-07-06T05:45:39.362Z,99.90
2018-07-06T05:48:19.378Z,99.90
2018-07-06T05:50:58.895Z,99.90
2018-07-06T05:53:38.485Z,99.90
2018-07-06T05:56:18.285Z,99.90
2018-07-06T05:58:57.822Z,99.90
2018-07-06T06:01:38.301Z,99.90
2018-07-06T06:04:18.161Z,99.90
2018-07-06T06:06:57.906Z,99.90
2018-07-06T06:09:26.308Z,99.90
2018-07-06T06:11:54.779Z,99.90
2018-07-06T06:14:23.559Z,99.90
2018-07-06T06:16:52.004Z,99.90
2018-07-06T06:19:20.438Z,99.90
2018-07-06T06:21:49.950Z,99.90
2018-07-06T06:24:18.352Z,99.90
2018-07-06T06:26:46.802Z,99.90
2018-07-06T06:29:15.251Z,99.90
2018-07-06T06:31:43.781Z,99.90
2018-07-06T06:34:12.243Z,99.90
2018-07-06T06:36:40.719Z,99.90
2018-07-06T06:39:09.188Z,99.90
2018-07-06T06:41:37.655Z,99.90
2018-07-06T06:44:06.089Z,99.90
2018-07-06T06:46:34.575Z,99.90
2018-07-06T06:49:03.059Z,99.90
2018-07-06T06:51:31.550Z,99.90
2018-07-06T06:56:28.483Z,99.90
2018-07-06T06:58:57.013Z,99.90
2018-07-06T07:01:25.507Z,99.90
2018-07-06T07:03:54.146Z,99.90
2018-07-06T07:06:22.633Z,99.90
2018-07-06T07:08:51.082Z,99.90
2018-07-06T07:11:19.551Z,99.90
2018-07-06T07:13:48.237Z,99.90
2018-07-06T07:16:16.712Z,99.90
2018-07-06T07:18:45.170Z,99.90
2018-07-06T07:21:13.672Z,99.90
2018-07-06T07:23:42.214Z,99.90
2018-07-06T07:26:10.729Z,99.90
2018-07-06T07:28:39.190Z,99.90
2018-07-06T07:31:07.629Z,99.90
2018-07-06T07:36:04.266Z,99.90
2018-07-06T07:38:32.772Z,99.90
2018-07-06T07:41:01.451Z,99.90
2018-07-06T07:43:29.963Z,99.90
2018-07-06T07:45:58.809Z,99.90
2018-07-06T07:48:27.277Z,99.90
2018-07-06T07:51:06.962Z,99.90
2018-07-06T07:53:49.897Z,99.90
2018-07-06T07:56:18.419Z,99.90
2018-07-06T07:58:49.342Z,99.90
2018-07-06T08:01:18.391Z,99.90
2018-07-06T08:03:46.849Z,99.90
2018-07-06T08:06:15.298Z,99.90
2018-07-06T08:08:44.835Z,99.90
2018-07-06T08:11:13.332Z,99.90
2018-07-06T08:13:49.332Z,99.90
2018-07-06T08:16:17.758Z,99.90
2018-07-06T08:18:46.219Z,99.90
2018-07-06T08:21:14.709Z,99.90
2018-07-06T08:23:43.152Z,99.90
2018-07-06T08:26:11.576Z,99.90
2018-07-06T08:28:40.042Z,99.90
2018-07-06T08:31:08.477Z,99.90
2018-07-06T08:33:45.512Z,99.90
2018-07-06T08:37:31.116Z,99.90
2018-07-06T08:39:59.707Z,99.90
2018-07-06T08:42:29.494Z,99.90
2018-07-06T08:44:59.029Z,99.90
2018-07-06T08:47:27.546Z,99.90
2018-07-06T08:49:56.787Z,99.90
2018-07-06T08:54:53.861Z,99.90
2018-07-06T08:57:23.186Z,99.90
2018-07-06T08:59:52.289Z,95.10
2018-07-06T09:02:21.130Z,89.70
2018-07-06T09:04:50.116Z,90.50
2018-07-06T09:07:18.595Z,90.50
2018-07-06T09:09:47.382Z,95.30
2018-07-06T09:12:15.829Z,86.60
2018-07-06T09:14:44.275Z,84.70
2018-07-06T09:17:14.818Z,82.30
2018-07-06T09:19:43.833Z,76.90
2018-07-06T09:22:12.750Z,81.70
2018-07-06T09:24:41.430Z,93.20
2018-07-06T09:27:09.859Z,88.70
2018-07-06T09:29:38.323Z,91.10
2018-07-06T09:32:07.182Z,78.70
2018-07-06T09:34:35.614Z,79.30
2018-07-06T09:37:04.210Z,76.60
2018-07-06T09:39:32.715Z,76.00
2018-07-06T09:42:01.282Z,71.00
2018-07-06T09:44:29.727Z,75.20
2018-07-06T09:47:01.699Z,80.20
2018-07-06T09:49:30.170Z,90.80
2018-07-06T09:51:59.286Z,84.50
2018-07-06T09:54:27.692Z,78.40
2018-07-06T09:56:56.166Z,77.90
2018-07-06T09:59:24.604Z,70.80
2018-07-06T10:01:53.103Z,69.80
2018-07-06T10:04:21.574Z,75.50
2018-07-06T10:06:50.022Z,73.90
2018-07-06T10:09:18.471Z,75.40
2018-07-06T10:11:47.021Z,75.50
2018-07-06T10:14:15.496Z,85.50
2018-07-06T10:16:43.994Z,81.20
2018-07-06T10:19:12.447Z,84.80
2018-07-06T10:21:40.917Z,86.50
2018-07-06T10:24:09.396Z,88.20
2018-07-06T10:26:37.829Z,76.80
2018-07-06T10:29:16.379Z,77.20
2018-07-06T10:31:53.562Z,74.00
2018-07-06T10:34:22.007Z,68.50
2018-07-06T10:36:50.442Z,66.40
2018-07-06T10:39:19.021Z,67.90
2018-07-06T10:41:47.467Z,63.40
2018-07-06T10:46:44.138Z,62.70
2018-07-06T10:49:12.597Z,60.00
2018-07-06T10:51:41.113Z,59.20
2018-07-06T10:54:09.580Z,58.90
2018-07-06T10:56:38.006Z,60.50
2018-07-06T10:59:07.468Z,60.90
2018-07-06T11:01:35.945Z,63.10
2018-07-06T11:04:04.394Z,62.10
2018-07-06T11:06:32.810Z,58.00
2018-07-06T11:09:01.228Z,57.50
2018-07-06T11:11:29.685Z,60.60
2018-07-06T11:13:58.130Z,58.20
2018-07-06T11:16:26.525Z,57.80
2018-07-06T11:18:54.933Z,58.80
2018-07-06T11:21:23.818Z,57.50
2018-07-06T11:23:52.230Z,54.20
2018-07-06T11:26:20.654Z,56.00
2018-07-06T11:28:49.718Z,56.10
2018-07-06T11:31:18.238Z,55.20
2018-07-06T11:33:46.682Z,56.80
2018-07-06T11:36:15.125Z,58.30
2018-07-06T11:38:43.560Z,57.50
2018-07-06T11:41:12.052Z,55.50
2018-07-06T11:43:40.740Z,55.00
2018-07-06T11:46:09.582Z,55.30
2018-07-06T11:48:38.037Z,54.20
2018-07-06T11:51:06.458Z,55.30
2018-07-06T11:53:34.878Z,55.20
2018-07-06T11:56:03.322Z,52.80
2018-07-06T11:58:31.786Z,54.40
2018-07-06T12:01:00.241Z,52.10
2018-07-06T12:03:28.710Z,54.30
2018-07-06T12:05:57.159Z,53.00
2018-07-06T12:08:25.602Z,53.10
2018-07-06T12:10:54.098Z,52.00
2018-07-06T12:13:22.522Z,53.00
2018-07-06T12:15:51.644Z,52.60
2018-07-06T12:18:20.066Z,51.70
2018-07-06T12:20:48.594Z,54.40
2018-07-06T12:23:17.174Z,53.10
2018-07-06T12:25:45.617Z,51.30
2018-07-06T12:28:14.072Z,51.80
2018-07-06T12:30:42.534Z,50.30
2018-07-06T12:33:10.963Z,51.90
2018-07-06T12:35:39.511Z,51.90
2018-07-06T12:38:07.978Z,51.00
2018-07-06T12:40:36.434Z,51.40
2018-07-06T12:43:04.849Z,51.70
2018-07-06T12:45:33.921Z,52.30
2018-07-06T12:48:02.701Z,51.60
2018-07-06T12:50:31.291Z,52.10
2018-07-06T12:52:59.705Z,50.20
2018-07-06T12:55:28.154Z,51.20
2018-07-06T12:57:56.581Z,52.40
2018-07-06T13:00:25.029Z,53.80
2018-07-06T13:02:53.446Z,53.30
2018-07-06T13:05:21.875Z,51.60
2018-07-06T13:10:22.604Z,51.20
2018-07-06T13:12:51.002Z,51.20
2018-07-06T13:15:19.458Z,52.00
2018-07-06T13:17:47.912Z,52.00
2018-07-06T13:20:16.374Z,52.10
2018-07-06T13:22:44.862Z,51.20
2018-07-06T13:25:13.301Z,52.20
2018-07-06T13:27:41.772Z,52.80
2018-07-06T13:30:10.241Z,52.40
2018-07-06T13:32:38.694Z,52.70
2018-07-06T13:35:07.134Z,53.80
2018-07-06T13:37:35.563Z,53.50
2018-07-06T13:40:03.998Z,52.10
2018-07-06T13:42:32.502Z,53.00
2018-07-06T13:45:00.945Z,53.30
2018-07-06T13:47:29.385Z,54.70
2018-07-06T13:49:57.850Z,54.40
2018-07-06T13:52:26.284Z,53.40
2018-07-06T13:54:54.696Z,54.50
2018-07-06T13:57:23.110Z,55.60
2018-07-06T13:59:51.545Z,55.60
2018-07-06T14:02:19.974Z,55.10
2018-07-06T14:04:49.045Z,54.30
2018-07-06T14:07:17.459Z,54.70
2018-07-06T14:09:45.882Z,56.10
2018-07-06T14:12:14.333Z,56.80
2018-07-06T14:14:42.756Z,55.70
2018-07-06T14:17:11.173Z,55.20
2018-07-06T14:19:39.667Z,57.00
2018-07-06T14:22:08.050Z,55.50
2018-07-06T14:24:38.166Z,54.70
2018-07-06T14:27:07.073Z,57.30
2018-07-06T14:29:35.796Z,54.50
2018-07-06T14:32:04.310Z,55.00
2018-07-06T14:34:34.001Z,56.10
2018-07-06T14:37:02.455Z,55.50
2018-07-06T14:39:30.881Z,57.00
2018-07-06T14:41:59.350Z,56.30
2018-07-06T14:44:31.938Z,56.30
2018-07-06T14:47:00.409Z,56.80
2018-07-06T14:49:29.571Z,57.50
2018-07-06T14:51:58.955Z,58.00
2018-07-06T14:54:27.453Z,58.00
2018-07-06T14:56:55.924Z,56.70
2018-07-06T14:59:24.346Z,58.30
2018-07-06T15:04:20.911Z,58.90
2018-07-06T15:06:54.492Z,56.90
2018-07-06T15:09:22.902Z,56.70
2018-07-06T15:11:51.302Z,56.40
2018-07-06T15:14:19.825Z,56.30
2018-07-06T15:16:48.284Z,56.50
2018-07-06T15:19:16.717Z,55.80
2018-07-06T15:21:45.126Z,56.90
2018-07-06T15:24:13.558Z,56.90
2018-07-06T15:26:41.963Z,57.60
2018-07-06T15:29:10.431Z,57.20
2018-07-06T15:31:38.863Z,58.20
2018-07-06T15:34:07.273Z,56.00
2018-07-06T15:36:35.681Z,57.10
2018-07-06T15:39:05.024Z,55.50
2018-07-06T15:41:33.457Z,56.30
2018-07-06T15:44:01.937Z,56.30
2018-07-06T15:46:30.379Z,56.80
2018-07-06T15:51:26.960Z,57.90
2018-07-06T15:53:55.398Z,59.20
2018-07-06T15:56:23.819Z,59.20
2018-07-06T15:58:52.259Z,59.40
2018-07-06T16:01:20.749Z,60.10
2018-07-06T16:03:49.210Z,62.10
2018-07-06T16:06:17.758Z,61.60
2018-07-06T16:08:46.185Z,61.70
2018-07-06T16:11:14.643Z,63.20
2018-07-06T16:13:43.096Z,64.60
2018-07-06T16:16:11.555Z,64.40
2018-07-06T16:18:39.974Z,64.30
2018-07-06T16:21:08.450Z,65.60
2018-07-06T16:23:36.862Z,66.50
2018-07-06T16:26:05.379Z,66.60
2018-07-06T16:28:33.803Z,67.20
2018-07-06T16:31:02.235Z,68.20
2018-07-06T16:33:30.713Z,68.30
2018-07-06T16:35:59.353Z,69.00
2018-07-06T16:38:27.789Z,68.40
2018-07-06T16:40:56.245Z,69.00
2018-07-06T16:43:24.662Z,67.40
2018-07-06T16:45:53.086Z,69.30
2018-07-06T16:48:21.581Z,68.90
2018-07-06T16:50:50.030Z,69.50
2018-07-06T16:53:18.461Z,71.50
2018-07-06T16:55:46.923Z,72.10
2018-07-06T16:58:15.433Z,71.80
2018-07-06T17:00:43.887Z,70.40
2018-07-06T17:03:12.342Z,70.10
2018-07-06T17:05:40.823Z,71.20
2018-07-06T17:08:09.266Z,71.40
2018-07-06T17:10:37.700Z,71.50
2018-07-06T17:13:06.174Z,71.80
2018-07-06T17:15:34.638Z,69.40
2018-07-06T17:18:03.072Z,71.20
2018-07-06T17:20:31.494Z,70.90
2018-07-06T17:22:59.925Z,72.90
2018-07-06T17:25:28.350Z,72.50
2018-07-06T17:27:56.996Z,72.90
2018-07-06T17:30:25.292Z,73.40
2018-07-06T17:32:53.756Z,75.50
2018-07-06T17:35:22.239Z,77.60
2018-07-06T17:37:50.667Z,76.20
2018-07-06T17:40:19.092Z,77.60
2018-07-06T17:42:47.512Z,77.00
2018-07-06T17:45:15.952Z,77.90
2018-07-06T17:47:44.434Z,77.30
2018-07-06T17:50:12.900Z,78.50
2018-07-06T17:52:41.318Z,79.60
2018-07-06T17:55:09.745Z,79.40
2018-07-06T17:57:38.934Z,81.10
2018-07-06T18:00:07.414Z,83.80
2018-07-06T18:02:35.865Z,84.40
2018-07-06T18:05:04.465Z,85.50
2018-07-06T18:07:34.494Z,90.40
2018-07-06T18:10:03.928Z,90.10
2018-07-06T18:12:32.458Z,90.50
2018-07-06T18:15:00.931Z,90.80
2018-07-06T18:17:31.061Z,92.70
2018-07-06T18:20:00.903Z,91.90
2018-07-06T18:22:29.911Z,91.40
2018-07-06T18:24:59.277Z,90.60
2018-07-06T18:27:27.798Z,90.00
2018-07-06T18:29:58.290Z,90.90
2018-07-06T18:32:26.718Z,91.30
2018-07-06T18:34:55.133Z,91.10
2018-07-06T18:37:23.662Z,91.30
2018-07-06T18:39:52.885Z,92.50
2018-07-06T18:42:22.155Z,94.00
2018-07-06T18:44:51.414Z,94.80
2018-07-06T18:47:20.947Z,95.20
2018-07-06T18:52:20.387Z,98.40
2018-07-06T18:54:49.759Z,99.90
2018-07-06T18:57:18.693Z,99.90
2018-07-06T18:59:47.379Z,99.90
2018-07-06T19:02:15.842Z,99.90
2018-07-06T19:04:44.276Z,99.90
2018-07-06T19:07:12.690Z,99.90
2018-07-06T19:09:41.105Z,99.90
2018-07-06T19:12:09.540Z,99.90
2018-07-06T19:14:38.867Z,99.90
2018-07-06T19:17:07.895Z,99.90
2018-07-06T19:19:37.170Z,99.90
2018-07-06T19:22:12.864Z,99.90
2018-07-06T19:24:41.456Z,99.90
2018-07-06T19:27:09.944Z,99.90
2018-07-06T19:29:38.727Z,99.90
2018-07-06T19:32:07.194Z,99.90
2018-07-06T19:34:36.464Z,99.90
2018-07-06T19:37:05.701Z,99.90
2018-07-06T19:39:34.662Z,99.90
2018-07-06T19:42:03.894Z,99.90
2018-07-06T19:47:01.861Z,99.90
2018-07-06T19:49:30.665Z,99.90
2018-07-06T19:51:59.291Z,99.90
2018-07-06T19:54:28.322Z,99.90
2018-07-06T19:57:00.838Z,99.90
2018-07-06T19:59:29.291Z,99.90
2018-07-06T20:01:57.738Z,99.90
2018-07-06T20:04:27.140Z,99.90
2018-07-06T20:06:55.614Z,99.90
2018-07-06T20:09:24.053Z,99.90
2018-07-06T20:11:52.506Z,99.90
2018-07-06T20:14:20.930Z,99.90
2018-07-06T20:19:17.538Z,99.90
2018-07-06T20:21:45.929Z,99.90
2018-07-06T20:24:14.359Z,99.90
2018-07-06T20:26:42.847Z,99.90
2018-07-06T20:29:11.303Z,99.90
2018-07-06T20:31:39.734Z,99.90
2018-07-06T20:34:08.185Z,99.90
2018-07-06T20:36:36.678Z,99.90
2018-07-06T20:39:05.172Z,99.90
2018-07-06T20:41:33.610Z,99.90
2018-07-06T20:44:02.142Z,99.90
2018-07-06T20:46:30.557Z,99.90
2018-07-06T20:48:59.029Z,99.90
2018-07-06T20:51:27.453Z,99.90
2018-07-06T20:53:55.900Z,99.90
2018-07-06T20:56:24.306Z,99.90
2018-07-06T20:58:54.761Z,99.90
2018-07-06T21:01:24.000Z,99.90
2018-07-06T21:03:53.307Z,99.90
2018-07-06T21:06:22.796Z,99.90
2018-07-06T21:08:51.370Z,99.90
2018-07-06T21:11:20.271Z,99.90
2018-07-06T21:13:49.128Z,99.90
2018-07-06T21:16:18.220Z,99.90
2018-07-06T21:18:47.049Z,99.90
2018-07-06T21:21:16.062Z,99.90
2018-07-06T21:23:44.949Z,99.90
2018-07-06T21:26:13.758Z,99.90
2018-07-06T21:28:42.546Z,99.90
2018-07-06T21:31:11.453Z,99.90
2018-07-06T21:33:40.810Z,99.90
2018-07-06T21:36:11.674Z,99.90
2018-07-06T21:38:42.732Z,99.90
2018-07-06T21:41:12.721Z,99.90
2018-07-06T21:43:43.382Z,99.90
2018-07-06T21:46:12.446Z,99.90
2018-07-06T21:48:42.275Z,99.90
2018-07-06T21:51:12.042Z,99.90
2018-07-06T21:53:40.482Z,99.90
2018-07-06T21:56:08.994Z,99.90
2018-07-06T21:58:37.474Z,99.90
2018-07-06T22:01:05.915Z,99.90
2018-07-06T22:03:34.356Z,99.90
2018-07-06T22:06:03.128Z,99.90
2018-07-06T22:08:31.547Z,99.90
2018-07-06T22:11:00.172Z,99.90
2018-07-06T22:13:29.193Z,99.90
2018-07-06T22:15:57.888Z,99.90
2018-07-06T22:18:26.303Z,99.90
2018-07-06T22:20:54.726Z,99.90
2018-07-06T22:23:23.135Z,99.90
2018-07-06T22:25:51.549Z,99.90
2018-07-06T22:28:20.010Z,99.90
2018-07-06T22:30:48.434Z,99.90
2018-07-06T22:33:16.844Z,99.90
2018-07-06T22:35:45.262Z,99.90
2018-07-06T22:38:13.688Z,99.90
2018-07-06T22:40:42.139Z,99.90
2018-07-06T22:43:10.581Z,99.90
2018-07-06T22:45:39.051Z,99.90
2018-07-06T22:48:07.473Z,99.90
2018-07-06T22:50:35.926Z,99.90
2018-07-06T22:53:04.343Z,99.90
2018-07-06T22:55:32.761Z,99.90
2018-07-06T22:58:01.618Z,99.90
2018-07-06T23:00:30.079Z,99.90
2018-07-06T23:03:00.706Z,99.90
2018-07-06T23:05:29.185Z,99.90
2018-07-06T23:07:57.666Z,99.90
2018-07-06T23:10:26.136Z,99.90
2018-07-06T23:12:54.564Z,99.90
2018-07-06T23:15:23.050Z,99.90
2018-07-06T23:17:51.482Z,99.90
2018-07-06T23:20:19.994Z,99.90
2018-07-06T23:23:16.975Z,99.90
2018-07-06T23:25:46.510Z,99.90
2018-07-06T23:28:15.103Z,99.90
2018-07-06T23:30:43.531Z,99.90
2018-07-06T23:33:12.359Z,99.90
2018-07-06T23:35:40.809Z,99.90
2018-07-06T23:38:09.331Z,99.90
2018-07-06T23:40:37.778Z,99.90
2018-07-06T23:43:06.252Z,99.90
2018-07-06T23:45:34.682Z,99.90
2018-07-06T23:48:03.137Z,99.90
2018-07-06T23:50:31.622Z,99.90
2018-07-06T23:53:00.224Z,99.90
2018-07-06T23:55:28.672Z,99.90
2018-07-06T23:57:57.080Z,99.90
